Time;durP1;ratioP1;P1;durP2;ratioP2;P2;SDS_P1;SDS_P2;PMS_P1;PMS_P2;Temp;Humidity;BMP_temperature;BMP_pressure;BME280_temperature;BME280_humidity;BME280_pressure;Samples;Min_cycle;Max_cycle;Signal;HPM_P1;HPM_P2
2022/01/13 00:00:48;;;;;;;112.13;21.17;;;3.30;90.50;;;;;;5054261;28;20497;-74
2022/01/13 00:03:13;;;;;;;135.37;24.03;;;3.30;90.50;;;;;;5051881;28;20067;-73
2022/01/13 00:05:39;;;;;;;128.80;23.77;;;3.30;90.60;;;;;;5041594;28;20040;-73
2022/01/13 00:08:05;;;;;;;115.83;23.10;;;3.30;90.50;;;;;;5052898;28;20052;-73
2022/01/13 00:10:31;;;;;;;137.43;24.87;;;3.30;90.60;;;;;;5046152;28;20325;-73
2022/01/13 00:13:06;;;;;;;171.80;26.20;;;3.30;90.50;;;;;;5027453;28;20036;-73
2022/01/13 00:18:19;;;;;;;144.73;23.55;;;3.30;90.50;;;;;;5058198;28;19916;-73
2022/01/13 00:26:01;;;;;;;160.68;26.50;;;3.20;90.50;;;;;;5044794;28;20135;-74
2022/01/13 00:28:27;;;;;;;159.63;25.42;;;3.20;90.60;;;;;;5043125;28;20049;-74
2022/01/13 00:30:55;;;;;;;159.73;25.97;;;3.20;90.60;;;;;;5058466;28;20044;-74
2022/01/13 00:33:24;;;;;;;157.88;26.98;;;3.20;90.50;;;;;;5044278;28;20048;-74
2022/01/13 00:35:56;;;;;;;199.82;28.42;;;3.30;90.50;;;;;;5043645;28;20377;-73
2022/01/13 00:38:21;;;;;;;188.57;28.02;;;3.20;90.60;;;;;;5056249;28;20035;-73
2022/01/13 00:40:47;;;;;;;157.87;25.67;;;3.20;90.50;;;;;;5052205;28;20051;-73
2022/01/13 00:43:13;;;;;;;200.80;27.73;;;3.30;90.50;;;;;;5042350;28;20122;-73
2022/01/13 00:45:39;;;;;;;150.33;26.37;;;3.30;90.50;;;;;;5052787;28;20044;-73
2022/01/13 00:48:05;;;;;;;99.57;20.60;;;3.30;90.50;;;;;;5051071;28;20048;-73
2022/01/13 00:50:30;;;;;;;107.53;22.47;;;3.30;90.50;;;;;;5053163;28;20047;-73
2022/01/13 00:52:56;;;;;;;102.73;23.93;;;3.30;90.50;;;;;;5026448;28;20086;-74
2022/01/13 00:55:31;;;;;;;125.70;25.40;;;3.30;90.50;;;;;;5033623;28;20044;-73
2022/01/13 00:57:57;;;;;;;103.07;24.40;;;3.30;90.50;;;;;;5045750;28;20040;-74
2022/01/13 01:00:23;;;;;;;122.27;25.17;;;3.30;90.60;;;;;;5035544;28;20855;-73
2022/01/13 01:02:49;;;;;;;113.83;25.17;;;3.40;90.60;;;;;;5072796;28;20044;-73
2022/01/13 01:05:14;;;;;;;116.17;25.83;;;3.40;90.50;;;;;;5039783;28;20129;-74
2022/01/13 01:07:40;;;;;;;132.47;26.83;;;3.40;90.60;;;;;;5039133;28;20079;-73
2022/01/13 01:10:07;;;;;;;152.90;27.37;;;3.50;90.50;;;;;;5012831;28;20054;-73
2022/01/13 01:12:37;;;;;;;147.43;27.70;;;3.50;90.60;;;;;;5065910;28;20101;-73
2022/01/13 01:15:03;;;;;;;133.48;25.13;;;3.50;90.50;;;;;;5066583;28;20036;-73
2022/01/13 01:17:29;;;;;;;151.75;25.85;;;3.50;90.60;;;;;;5038571;28;20096;-74
2022/01/13 01:19:55;;;;;;;127.25;24.00;;;3.50;90.50;;;;;;5033046;28;20079;-74
2022/01/13 01:27:29;;;;;;;118.80;22.65;;;3.40;90.50;;;;;;5064886;28;20048;-74
2022/01/13 01:30:01;;;;;;;111.97;23.33;;;3.40;90.60;;;;;;5053014;28;20059;-73
2022/01/13 01:32:28;;;;;;;149.68;25.15;;;3.40;90.60;;;;;;5029727;28;20040;-73
2022/01/13 01:34:55;;;;;;;154.13;26.23;;;3.40;90.60;;;;;;5049407;28;20036;-73
2022/01/13 01:37:27;;;;;;;162.15;25.60;;;3.40;90.60;;;;;;5025660;28;20054;-73
2022/01/13 01:39:53;;;;;;;218.15;29.92;;;3.40;90.60;;;;;;5047462;28;20492;-74
2022/01/13 01:42:20;;;;;;;182.32;28.13;;;3.40;90.60;;;;;;5057927;28;20054;-74
2022/01/13 01:44:49;;;;;;;116.35;22.20;;;3.40;90.60;;;;;;5053103;28;20036;-74
2022/01/13 01:47:17;;;;;;;163.15;26.55;;;3.30;90.60;;;;;;5068476;28;20052;-74
2022/01/13 01:49:48;;;;;;;224.80;30.55;;;3.30;90.60;;;;;;5059406;28;20058;-74
2022/01/13 01:52:18;;;;;;;158.73;23.83;;;3.30;90.60;;;;;;5047210;28;20179;-74
2022/01/13 01:54:45;;;;;;;236.85;28.52;;;3.30;90.60;;;;;;5036731;28;20040;-74
2022/01/13 01:57:12;;;;;;;228.75;26.83;;;3.30;90.60;;;;;;5037973;28;20045;-74
2022/01/13 01:59:40;;;;;;;184.00;24.02;;;3.30;90.60;;;;;;5047701;28;20064;-74
2022/01/13 02:02:08;;;;;;;216.93;27.02;;;3.30;90.50;;;;;;5041770;28;20098;-73
2022/01/13 02:04:34;;;;;;;269.83;29.05;;;3.30;90.50;;;;;;5040276;28;20451;-73
2022/01/13 02:07:03;;;;;;;220.43;26.27;;;3.30;90.60;;;;;;5041796;28;20045;-74
2022/01/13 02:09:29;;;;;;;254.45;28.15;;;3.30;90.60;;;;;;5028518;28;20035;-73
2022/01/13 02:11:59;;;;;;;255.40;27.70;;;3.30;90.60;;;;;;5035851;28;20119;-74
2022/01/13 02:17:21;;;;;;;179.85;21.70;;;3.30;90.60;;;;;;5050805;28;20103;-74
2022/01/13 02:19:48;;;;;;;247.85;26.75;;;3.30;90.60;;;;;;5025867;28;20074;-74
2022/01/13 02:22:14;;;;;;;266.83;29.33;;;3.30;90.50;;;;;;5033805;28;20364;-74
2022/01/13 02:24:39;;;;;;;198.10;24.13;;;3.30;90.60;;;;;;5031461;28;20033;-74
2022/01/13 02:27:06;;;;;;;186.73;23.13;;;3.30;90.50;;;;;;5055151;28;20040;-74
2022/01/13 02:29:33;;;;;;;208.25;24.58;;;3.40;90.60;;;;;;5032627;28;20493;-73
2022/01/13 02:32:00;;;;;;;249.80;28.10;;;3.40;90.60;;;;;;5049953;28;20068;-73
2022/01/13 02:34:26;;;;;;;307.63;31.42;;;3.40;90.60;;;;;;5034003;28;20041;-73
2022/01/13 02:36:56;;;;;;;275.05;29.60;;;3.40;90.60;;;;;;5035224;28;20035;-74
2022/01/13 02:39:23;;;;;;;266.92;31.65;;;3.50;90.70;;;;;;5034923;28;20037;-74
2022/01/13 02:41:49;;;;;;;255.30;28.60;;;3.50;90.70;;;;;;5053622;28;20427;-73
2022/01/13 02:44:18;;;;;;;308.90;32.07;;;3.50;90.70;;;;;;5032712;28;20041;-74
2022/01/13 02:49:20;;;;;;;338.00;33.25;;;3.60;90.70;;;;;;5051385;28;20106;-73
2022/01/13 02:51:52;;;;;;;209.38;27.10;;;3.60;90.70;;;;;;5056722;28;20402;-73
2022/01/13 02:54:18;;;;;;;243.18;28.55;;;3.60;90.60;;;;;;5049704;28;20045;-74
2022/01/13 02:56:44;;;;;;;250.03;28.50;;;3.60;90.60;;;;;;5056467;28;20046;-74
2022/01/13 02:59:11;;;;;;;256.75;27.13;;;3.60;90.60;;;;;;5053298;28;20135;-74
2022/01/13 03:01:38;;;;;;;321.88;31.40;;;3.60;90.70;;;;;;5061803;28;20067;-74
2022/01/13 03:04:07;;;;;;;340.65;32.45;;;3.70;90.70;;;;;;5043624;28;20040;-74
2022/01/13 03:06:36;;;;;;;294.27;31.90;;;3.70;90.80;;;;;;5074228;28;20043;-74
2022/01/13 03:09:10;;;;;;;304.10;31.35;;;3.70;90.60;;;;;;5063943;28;20123;-74
2022/01/13 03:11:37;;;;;;;235.27;27.98;;;3.70;90.70;;;;;;5042131;28;20485;-74
2022/01/13 03:14:05;;;;;;;276.85;31.17;;;3.70;90.70;;;;;;5043710;28;20048;-74
2022/01/13 03:16:31;;;;;;;256.25;29.98;;;3.70;90.70;;;;;;5035610;28;20389;-74
2022/01/13 03:18:57;;;;;;;324.93;32.47;;;3.70;90.80;;;;;;5067001;28;20323;-74
2022/01/13 03:21:23;;;;;;;285.57;31.43;;;3.70;90.70;;;;;;5043485;28;20653;-74
2022/01/13 03:23:50;;;;;;;257.27;32.17;;;3.70;90.70;;;;;;5033648;28;20369;-74
2022/01/13 03:26:16;;;;;;;223.98;27.40;;;3.70;90.80;;;;;;5038970;28;20055;-74
2022/01/13 03:28:52;;;;;;;218.93;29.13;;;3.80;90.70;;;;;;5041953;28;20040;-73
2022/01/13 03:31:18;;;;;;;;;;;3.80;90.70;;;;;;5028494;28;20036;-73
2022/01/13 03:33:44;;;;;;;291.70;32.20;;;3.80;90.70;;;;;;5048583;28;20003;-74
2022/01/13 03:36:11;;;;;;;264.67;29.83;;;3.80;90.70;;;;;;5052937;28;20103;-74
2022/01/13 03:38:36;;;;;;;312.00;32.78;;;3.80;90.80;;;;;;5059932;28;20102;-73
2022/01/13 03:41:03;;;;;;;363.23;36.03;;;3.90;90.70;;;;;;5033958;28;20436;-74
2022/01/13 03:43:29;;;;;;;248.75;30.30;;;3.90;90.80;;;;;;5022754;28;20056;-74
2022/01/13 03:45:55;;;;;;;303.67;33.80;;;3.90;90.70;;;;;;5051537;28;20437;-74
2022/01/13 03:48:21;;;;;;;303.33;34.07;;;3.90;90.80;;;;;;5050904;28;20368;-74
2022/01/13 03:50:47;;;;;;;305.92;32.72;;;3.90;90.80;;;;;;5046858;28;20726;-74
2022/01/13 03:53:28;;;;;;;308.20;33.03;;;3.90;90.80;;;;;;5049862;28;20056;-74
2022/01/13 03:56:31;;;;;;;286.33;30.60;;;3.90;90.80;;;;;;5044421;28;20097;-73
2022/01/13 03:59:27;;;;;;;279.70;29.65;;;4.00;90.70;;;;;;5052249;28;20252;-74
2022/01/13 04:02:12;;;;;;;330.20;32.75;;;4.00;90.70;;;;;;5048755;28;20534;-74
2022/01/13 04:04:44;;;;;;;214.68;26.85;;;4.00;90.80;;;;;;5048687;28;20037;-73
2022/01/13 04:07:21;;;;;;;331.77;33.67;;;4.00;90.80;;;;;;5037158;28;20040;-74
2022/01/13 04:09:46;;;;;;;230.57;28.85;;;4.00;90.80;;;;;;5052030;28;20040;-74
2022/01/13 04:12:14;;;;;;;328.97;33.53;;;4.00;90.70;;;;;;5035292;28;20323;-74
2022/01/13 04:17:10;;;;;;;289.95;32.63;;;4.10;90.90;;;;;;5053557;28;20404;-74
2022/01/13 04:19:36;;;;;;;258.33;31.02;;;4.10;90.80;;;;;;5041710;28;20040;-74
2022/01/13 04:22:06;;;;;;;246.90;31.80;;;4.10;90.80;;;;;;5066541;28;20063;-74
2022/01/13 04:24:33;;;;;;;283.35;33.13;;;4.10;90.70;;;;;;5068789;28;20083;-74
2022/01/13 04:26:59;;;;;;;204.05;28.98;;;4.10;90.80;;;;;;5042664;28;20151;-74
2022/01/13 04:29:34;;;;;;;287.27;34.38;;;4.10;90.80;;;;;;5070831;28;20085;-74
2022/01/13 04:31:59;;;;;;;217.93;32.08;;;4.10;90.90;;;;;;5046781;28;20064;-74
2022/01/13 04:34:26;;;;;;;233.67;31.33;;;4.20;90.90;;;;;;5063846;28;20036;-74
2022/01/13 04:36:54;;;;;;;224.95;30.88;;;4.20;90.90;;;;;;5054809;28;20116;-74
2022/01/13 04:39:21;;;;;;;275.35;33.53;;;4.20;90.80;;;;;;5040560;28;20068;-74
2022/01/13 04:41:48;;;;;;;269.40;33.22;;;4.20;90.80;;;;;;5063032;28;20036;-73
2022/01/13 04:44:19;;;;;;;250.77;32.72;;;4.30;90.80;;;;;;5045542;28;20087;-73
2022/01/13 04:46:46;;;;;;;239.00;32.25;;;4.30;90.80;;;;;;5058053;28;20080;-73
2022/01/13 04:49:12;;;;;;;249.23;32.55;;;4.30;90.80;;;;;;5046133;28;20048;-74
2022/01/13 04:51:39;;;;;;;250.48;33.03;;;4.30;90.80;;;;;;5036316;28;20044;-74
2022/01/13 04:54:06;;;;;;;267.58;34.70;;;4.40;90.80;;;;;;5056990;28;20455;-74
2022/01/13 04:57:14;;;;;;;238.10;32.75;;;4.40;90.90;;;;;;5034066;28;20684;-73
2022/01/13 04:59:24;;;;;;;249.13;34.28;;;4.40;90.90;;;;;;5060417;28;20119;-73
2022/01/13 05:01:50;;;;;;;244.50;34.10;;;4.50;90.80;;;;;;5044397;28;20121;-73
2022/01/13 05:04:16;;;;;;;195.00;32.33;;;4.50;90.90;;;;;;5047741;28;20070;-74
2022/01/13 05:06:41;;;;;;;249.23;34.37;;;4.50;90.90;;;;;;5041283;28;20054;-73
2022/01/13 05:09:07;;;;;;;209.07;33.20;;;4.50;90.80;;;;;;5031569;28;20358;-73
2022/01/13 05:11:33;;;;;;;222.40;34.00;;;4.60;90.90;;;;;;5025800;28;20048;-73
2022/01/13 05:13:58;;;;;;;204.73;33.83;;;4.60;90.80;;;;;;5065530;28;20145;-74
2022/01/13 05:16:31;;;;;;;153.00;31.03;;;4.60;90.90;;;;;;5061854;28;20044;-74
2022/01/13 05:19:11;;;;;;;192.80;34.63;;;4.60;90.90;;;;;;5052710;28;20579;-74
2022/01/13 05:24:08;;;;;;;165.55;33.30;;;4.70;90.90;;;;;;5040127;28;20127;-73
2022/01/13 05:26:34;;;;;;;172.67;31.70;;;4.70;91.00;;;;;;5060243;28;20186;-74
2022/01/13 05:29:00;;;;;;;184.13;32.33;;;4.70;90.90;;;;;;5036104;28;20037;-73
2022/01/13 05:31:26;;;;;;;198.33;33.70;;;4.70;90.90;;;;;;5032434;28;20041;-74
2022/01/13 05:33:51;;;;;;;186.77;34.00;;;4.80;91.00;;;;;;5034630;28;20043;-74
2022/01/13 05:36:17;;;;;;;188.47;35.33;;;4.80;91.00;;;;;;5034237;28;20497;-74
2022/01/13 05:38:43;;;;;;;189.63;34.63;;;4.80;90.90;;;;;;5041521;28;20075;-74
2022/01/13 05:41:09;;;;;;;191.37;34.03;;;4.80;91.00;;;;;;5077006;28;20080;-74
2022/01/13 05:43:35;;;;;;;188.38;34.15;;;4.80;91.00;;;;;;5053625;28;20057;-74
2022/01/13 05:46:02;;;;;;;187.82;35.28;;;4.80;91.00;;;;;;5061913;28;20040;-74
2022/01/13 05:48:31;;;;;;;191.75;35.13;;;4.90;90.90;;;;;;5049506;28;20047;-74
2022/01/13 05:50:57;;;;;;;171.57;34.20;;;4.90;90.90;;;;;;5064663;28;20499;-74
2022/01/13 05:53:23;;;;;;;185.88;35.70;;;4.90;91.00;;;;;;5060946;28;20052;-73
2022/01/13 05:55:49;;;;;;;139.20;33.10;;;4.90;91.00;;;;;;5022669;28;20040;-74
2022/01/13 05:58:14;;;;;;;145.73;33.50;;;4.90;91.00;;;;;;5046316;28;20078;-74
2022/01/13 06:00:40;;;;;;;145.97;35.50;;;5.00;91.00;;;;;;5033823;28;20028;-73
2022/01/13 06:03:06;;;;;;;162.33;36.27;;;5.00;90.90;;;;;;5083053;28;20410;-74
2022/01/13 06:05:33;;;;;;;173.67;38.23;;;5.00;91.00;;;;;;5021405;28;20048;-74
2022/01/13 06:07:58;;;;;;;145.15;35.28;;;5.10;91.00;;;;;;5065078;28;20036;-74
2022/01/13 06:10:25;;;;;;;145.63;36.87;;;5.10;91.00;;;;;;5052460;28;20480;-74
2022/01/13 06:12:52;;;;;;;137.43;36.13;;;5.10;91.00;;;;;;5035678;28;20051;-74
2022/01/13 06:15:20;;;;;;;149.02;36.92;;;5.20;91.00;;;;;;5061371;28;20032;-73
2022/01/13 06:17:50;;;;;;;142.45;36.42;;;5.20;91.10;;;;;;5043208;28;20403;-73
2022/01/13 06:20:16;;;;;;;178.68;39.60;;;5.30;91.10;;;;;;5064264;28;20041;-74
2022/01/13 06:22:44;;;;;;;154.35;38.03;;;5.30;91.10;;;;;;5041418;28;20043;-74
2022/01/13 06:25:11;;;;;;;159.93;36.33;;;5.30;91.00;;;;;;5059141;28;20399;-74
2022/01/13 06:27:38;;;;;;;155.88;37.35;;;5.30;91.10;;;;;;5061506;28;20089;-74
2022/01/13 06:30:09;;;;;;;180.73;38.85;;;5.30;91.10;;;;;;5055530;28;20101;-74
2022/01/13 06:32:35;;;;;;;163.18;36.55;;;5.30;91.10;;;;;;5061936;28;20036;-74
2022/01/13 06:35:01;;;;;;;224.03;40.07;;;5.30;91.10;;;;;;5064030;28;20666;-74
2022/01/13 06:37:27;;;;;;;214.50;37.67;;;5.30;91.10;;;;;;5042404;28;20036;-74
2022/01/13 06:39:52;;;;;;;227.93;38.93;;;5.20;91.10;;;;;;5050233;28;20401;-74
2022/01/13 06:42:18;;;;;;;233.93;39.07;;;5.20;91.00;;;;;;5044859;28;20123;-74
2022/01/13 06:44:44;;;;;;;241.20;38.83;;;5.20;91.10;;;;;;5045728;28;20117;-73
2022/01/13 06:47:10;;;;;;;242.20;40.55;;;5.10;91.10;;;;;;5008828;28;20052;-74
2022/01/13 06:49:36;;;;;;;219.88;38.17;;;5.10;91.00;;;;;;5064088;28;20046;-73
2022/01/13 06:52:03;;;;;;;207.90;37.47;;;5.10;91.00;;;;;;5048694;28;20135;-74
2022/01/13 06:54:29;;;;;;;179.48;38.05;;;5.10;91.00;;;;;;5054771;28;20047;-73
2022/01/13 06:56:55;;;;;;;179.38;38.40;;;5.10;91.00;;;;;;5068407;28;20032;-74
2022/01/13 06:59:21;;;;;;;169.10;36.53;;;5.10;91.00;;;;;;5063111;28;20697;-74
2022/01/13 07:01:47;;;;;;;177.73;37.87;;;5.10;91.10;;;;;;5038150;28;20061;-74
2022/01/13 07:04:14;;;;;;;186.60;39.25;;;5.10;91.10;;;;;;5033591;28;20040;-74
2022/01/13 07:06:42;;;;;;;160.25;36.88;;;5.10;91.10;;;;;;5055919;28;20429;-74
2022/01/13 07:09:10;;;;;;;150.13;35.85;;;5.10;91.00;;;;;;5047861;28;20078;-74
2022/01/13 07:11:36;;;;;;;151.52;35.95;;;5.10;91.00;;;;;;5056944;28;20037;-74
2022/01/13 07:14:02;;;;;;;159.63;37.40;;;5.10;91.00;;;;;;5064561;28;20082;-74
2022/01/13 07:16:28;;;;;;;147.63;36.47;;;5.10;91.10;;;;;;5050508;28;20073;-74
2022/01/13 07:18:54;;;;;;;138.43;36.37;;;5.20;91.10;;;;;;5048598;28;20098;-74
2022/01/13 07:21:22;;;;;;;154.20;37.10;;;5.20;91.00;;;;;;5044793;28;20293;-73
2022/01/13 07:23:48;;;;;;;145.05;37.55;;;5.20;91.10;;;;;;5040283;28;20458;-74
2022/01/13 07:26:14;;;;;;;134.40;35.47;;;5.20;91.10;;;;;;5033565;28;20044;-74
2022/01/13 07:28:39;;;;;;;155.17;35.97;;;5.20;91.10;;;;;;5023690;28;20389;-74
2022/01/13 07:31:05;;;;;;;130.10;34.37;;;5.20;91.10;;;;;;5057634;28;20041;-74
2022/01/13 07:33:31;;;;;;;141.83;37.27;;;5.20;91.00;;;;;;5068031;28;20120;-74
2022/01/13 07:35:57;;;;;;;135.83;35.10;;;5.20;91.00;;;;;;5035191;28;20118;-74
2022/01/13 07:38:22;;;;;;;143.27;37.23;;;5.20;91.10;;;;;;5043629;28;20070;-74
2022/01/13 07:40:49;;;;;;;145.03;36.30;;;5.20;91.10;;;;;;5042839;28;20559;-73
2022/01/13 07:43:21;;;;;;;129.45;35.72;;;5.20;91.00;;;;;;5062891;28;20785;-73
2022/01/13 07:45:48;;;;;;;117.78;34.60;;;5.20;91.10;;;;;;5048046;28;20457;-74
2022/01/13 07:48:14;;;;;;;132.18;36.60;;;5.20;91.10;;;;;;5049264;28;20040;-74
2022/01/13 07:50:40;;;;;;;121.43;35.50;;;5.20;91.00;;;;;;5034969;28;20405;-74
2022/01/13 07:53:06;;;;;;;141.47;36.50;;;5.30;91.10;;;;;;5047966;28;20135;-74
2022/01/13 07:55:31;;;;;;;142.90;37.03;;;5.30;91.00;;;;;;5064453;28;20071;-74
2022/01/13 07:57:57;;;;;;;135.00;35.77;;;5.30;91.00;;;;;;5035255;28;20071;-74
2022/01/13 08:00:23;;;;;;;116.40;34.27;;;5.30;91.10;;;;;;5048394;28;20052;-74
2022/01/13 08:02:48;;;;;;;152.93;37.17;;;5.30;91.10;;;;;;5046867;28;20089;-74
2022/01/13 08:05:14;;;;;;;133.87;35.83;;;5.30;91.10;;;;;;5061913;28;20035;-74
2022/01/13 08:07:40;;;;;;;122.32;34.38;;;5.30;91.10;;;;;;5040273;28;20040;-74
2022/01/13 08:10:06;;;;;;;139.37;37.30;;;5.30;91.00;;;;;;5029675;28;20567;-74
2022/01/13 08:12:32;;;;;;;120.73;34.67;;;5.30;91.10;;;;;;5064352;28;20032;-74
2022/01/13 08:14:58;;;;;;;122.60;33.47;;;5.30;91.10;;;;;;5066138;28;20040;-74
2022/01/13 08:20:08;;;;;;;134.82;35.50;;;5.40;91.10;;;;;;5052428;28;20048;-74
2022/01/13 08:22:34;;;;;;;116.75;34.58;;;5.40;91.10;;;;;;5035694;28;20045;-74
2022/01/13 08:25:01;;;;;;;121.82;34.28;;;5.40;91.00;;;;;;5037185;28;20442;-74
2022/01/13 08:27:26;;;;;;;112.35;35.47;;;5.40;91.00;;;;;;5066957;28;20656;-74
2022/01/13 08:29:52;;;;;;;106.13;33.37;;;5.40;91.00;;;;;;5037281;28;20036;-74
2022/01/13 08:32:18;;;;;;;124.93;36.10;;;5.40;91.10;;;;;;5025597;28;20062;-74
2022/01/13 08:34:45;;;;;;;106.13;33.92;;;5.40;91.10;;;;;;5047750;28;20040;-74
2022/01/13 08:37:11;;;;;;;111.78;34.40;;;5.40;91.10;;;;;;5042199;28;20032;-74
2022/01/13 08:39:43;;;;;;;120.63;35.17;;;5.40;91.00;;;;;;5049430;28;20106;-74
2022/01/13 08:42:09;;;;;;;111.22;34.78;;;5.40;91.20;;;;;;5063290;28;20500;-74
2022/01/13 08:44:35;;;;;;;110.80;35.03;;;5.40;91.10;;;;;;5064963;28;20055;-74
2022/01/13 08:47:01;;;;;;;106.13;36.60;;;5.40;91.10;;;;;;5040041;28;20037;-74
2022/01/13 08:49:27;;;;;;;111.37;36.60;;;5.40;91.10;;;;;;5038516;28;20044;-74
2022/01/13 08:51:54;;;;;;;100.03;33.33;;;5.40;91.10;;;;;;5030453;28;20385;-74
2022/01/13 08:54:21;;;;;;;91.70;35.05;;;5.50;91.10;;;;;;5044378;28;20055;-74
2022/01/13 08:56:47;;;;;;;104.97;35.20;;;5.50;91.10;;;;;;5058103;28;20044;-74
2022/01/13 08:59:13;;;;;;;118.22;37.15;;;5.50;91.10;;;;;;5050670;28;20468;-73
2022/01/13 09:01:39;;;;;;;103.87;35.77;;;5.50;91.10;;;;;;5042046;28;20123;-73
2022/01/13 09:04:05;;;;;;;104.23;35.20;;;5.50;91.10;;;;;;5034123;28;20143;-75
2022/01/13 09:06:31;;;;;;;98.80;35.90;;;5.50;91.00;;;;;;5028442;28;20484;-74
2022/01/13 09:08:56;;;;;;;92.83;35.97;;;5.50;91.10;;;;;;5052068;28;20036;-74
2022/01/13 09:11:22;;;;;;;89.97;33.97;;;5.60;91.10;;;;;;5059679;28;20341;-74
2022/01/13 09:13:55;;;;;;;100.90;36.07;;;5.60;91.00;;;;;;5044377;28;20044;-74
2022/01/13 09:16:23;;;;;;;90.80;36.22;;;5.60;91.00;;;;;;5061805;28;20511;-73
2022/01/13 09:21:22;;;;;;;100.30;36.80;;;5.70;91.10;;;;;;5041117;28;20071;-73
2022/01/13 09:23:48;;;;;;;94.68;37.60;;;5.70;91.00;;;;;;5060494;28;20123;-73
2022/01/13 09:26:14;;;;;;;132.33;40.80;;;5.80;91.00;;;;;;5043721;28;20059;-74
2022/01/13 09:28:39;;;;;;;104.47;36.23;;;5.80;91.10;;;;;;5042929;28;20040;-73
2022/01/13 09:31:06;;;;;;;107.23;38.10;;;5.80;91.00;;;;;;5030530;28;20047;-73
2022/01/13 09:33:32;;;;;;;101.40;35.78;;;5.90;91.10;;;;;;5034627;28;20044;-74
2022/01/13 09:35:58;;;;;;;105.97;36.65;;;5.90;91.10;;;;;;5033750;28;20079;-74
2022/01/13 09:38:24;;;;;;;105.78;37.08;;;5.90;91.00;;;;;;5038973;28;20043;-73
2022/01/13 09:40:54;;;;;;;108.63;36.53;;;5.90;91.00;;;;;;5051847;28;20048;-74
2022/01/13 09:43:26;;;;;;;110.55;39.55;;;5.90;91.00;;;;;;5055956;28;20040;-74
2022/01/13 09:45:52;;;;;;;101.68;36.50;;;5.90;90.90;;;;;;5052369;28;20102;-73
2022/01/13 09:48:18;;;;;;;114.03;36.55;;;5.90;91.00;;;;;;5060821;28;20071;-74
2022/01/13 09:50:48;;;;;;;102.00;36.50;;;6.00;91.00;;;;;;5064834;28;20040;-74
2022/01/13 09:53:17;;;;;;;95.78;35.13;;;6.00;91.00;;;;;;5044008;28;20056;-74
2022/01/13 09:55:44;;;;;;;90.68;34.75;;;6.10;90.90;;;;;;5047314;28;20093;-73
2022/01/13 09:58:11;;;;;;;103.53;36.13;;;6.10;91.00;;;;;;5070051;28;20441;-74
2022/01/13 10:00:38;;;;;;;98.53;35.80;;;6.10;91.00;;;;;;5053937;28;20048;-73
2022/01/13 10:03:13;;;;;;;78.25;33.70;;;6.20;91.00;;;;;;5024191;28;20432;-74
2022/01/13 10:05:48;;;;;;;75.35;31.35;;;6.20;91.00;;;;;;5051811;28;20070;-73
2022/01/13 10:08:14;;;;;;;87.45;33.17;;;6.20;90.90;;;;;;5043224;28;20045;-74
2022/01/13 10:10:40;;;;;;;78.57;30.63;;;6.30;90.80;;;;;;5031575;28;20036;-73
2022/01/13 10:13:14;;;;;;;74.70;31.07;;;6.30;90.90;;;;;;5050265;28;20109;-74
2022/01/13 10:18:42;;;;;;;73.32;30.60;;;6.30;90.90;;;;;;5065255;28;20058;-74
2022/01/13 10:21:10;;;;;;;71.22;30.13;;;6.30;90.80;;;;;;5052572;28;20097;-73
2022/01/13 10:23:36;;;;;;;68.57;30.08;;;6.30;90.70;;;;;;5055036;28;20189;-74
2022/01/13 10:26:10;;;;;;;72.80;29.47;;;6.30;90.70;;;;;;5056579;28;20044;-74
2022/01/13 10:28:36;;;;;;;71.07;29.08;;;6.30;90.70;;;;;;5050189;28;20075;-73
2022/01/13 10:31:02;;;;;;;70.87;30.40;;;6.30;90.60;;;;;;5037387;28;20493;-73
2022/01/13 10:33:30;;;;;;;66.27;29.20;;;6.30;90.60;;;;;;5033919;28;20068;-73
2022/01/13 10:36:07;;;;;;;70.32;31.08;;;6.30;90.40;;;;;;5045982;28;20035;-73
2022/01/13 10:38:56;;;;;;;78.85;31.95;;;6.20;90.50;;;;;;5070599;28;20071;-73
2022/01/13 10:41:48;;;;;;;82.50;34.33;;;6.20;90.40;;;;;;5066784;28;20051;-73
2022/01/13 10:44:16;;;;;;;81.90;32.67;;;6.20;90.30;;;;;;5046849;28;20135;-73
2022/01/13 10:47:03;;;;;;;68.68;30.40;;;6.30;90.40;;;;;;5060069;28;20036;-74
2022/01/13 10:49:38;;;;;;;81.75;31.88;;;6.30;90.20;;;;;;5039979;28;20044;-74
2022/01/13 10:52:25;;;;;;;64.78;31.02;;;6.20;90.10;;;;;;5051430;28;20139;-73
2022/01/13 10:54:53;;;;;;;69.10;28.92;;;6.30;90.10;;;;;;5066558;28;20059;-73
2022/01/13 10:57:21;;;;;;;70.93;30.23;;;6.20;90.00;;;;;;5052021;28;20555;-73
2022/01/13 10:59:47;;;;;;;71.20;29.60;;;6.30;90.00;;;;;;5069417;28;20047;-74
2022/01/13 11:02:13;;;;;;;76.80;29.87;;;6.30;89.90;;;;;;5026919;28;20419;-73
2022/01/13 11:04:38;;;;;;;72.10;29.00;;;6.30;89.90;;;;;;5043965;28;20076;-74
2022/01/13 11:07:16;;;;;;;73.17;30.43;;;6.30;89.90;;;;;;5055347;28;20044;-73
2022/01/13 11:09:50;;;;;;;62.22;28.55;;;6.30;89.80;;;;;;5059507;28;20530;-74
2022/01/13 11:12:16;;;;;;;70.07;28.65;;;6.30;89.70;;;;;;5055298;28;20044;-73
2022/01/13 11:14:43;;;;;;;60.97;28.73;;;6.40;89.60;;;;;;5033386;28;20036;-74
2022/01/13 11:17:12;;;;;;;66.35;28.38;;;6.40;89.70;;;;;;5041447;28;20131;-74
2022/01/13 11:19:41;;;;;;;62.53;27.67;;;6.40;89.70;;;;;;5033384;28;20480;-74
2022/01/13 11:22:09;;;;;;;58.92;25.92;;;6.50;89.80;;;;;;5054574;28;20088;-74
2022/01/13 11:24:36;;;;;;;63.92;27.20;;;6.50;89.80;;;;;;5036687;28;20499;-73
2022/01/13 11:27:03;;;;;;;62.03;27.08;;;6.50;89.50;;;;;;5042967;28;20040;-73
2022/01/13 11:29:29;;;;;;;64.93;26.20;;;6.50;89.50;;;;;;5060067;28;20036;-73
2022/01/13 11:31:56;;;;;;;62.80;27.45;;;6.60;89.50;;;;;;5057456;28;20043;-73
2022/01/13 11:34:24;;;;;;;67.30;27.45;;;6.60;89.50;;;;;;5029125;28;20071;-73
2022/01/13 11:36:51;;;;;;;68.00;28.10;;;6.70;89.50;;;;;;5044508;28;20040;-73
2022/01/13 11:39:16;;;;;;;58.22;27.05;;;6.70;89.50;;;;;;5035164;28;20492;-73
2022/01/13 11:42:10;;;;;;;69.23;28.70;;;6.80;89.50;;;;;;5052276;28;20048;-73
2022/01/13 11:44:37;;;;;;;66.18;27.60;;;6.90;89.50;;;;;;5058122;28;20563;-73
2022/01/13 11:47:19;;;;;;;65.80;28.00;;;6.90;89.50;;;;;;5058828;28;20189;-73
2022/01/13 11:49:58;;;;;;;51.67;25.48;;;7.00;89.50;;;;;;5067352;28;20374;-73
2022/01/13 11:52:43;;;;;;;53.28;25.67;;;7.10;89.50;;;;;;5050872;28;20271;-73
2022/01/13 11:55:22;;;;;;;51.42;24.80;;;7.10;89.50;;;;;;5065894;28;20047;-73
2022/01/13 11:57:49;;;;;;;53.17;25.67;;;7.20;89.30;;;;;;5044912;28;20048;-73
2022/01/13 12:00:22;;;;;;;46.90;22.52;;;7.10;89.00;;;;;;5062669;28;20052;-74
2022/01/13 12:02:48;;;;;;;46.50;21.75;;;7.20;88.80;;;;;;5067489;28;20089;-73
2022/01/13 12:05:23;;;;;;;44.70;21.93;;;7.20;88.80;;;;;;5048441;28;20048;-74
2022/01/13 12:07:54;;;;;;;44.70;21.10;;;7.30;88.70;;;;;;5065033;28;20079;-74
2022/01/13 12:10:20;;;;;;;39.03;21.45;;;7.30;89.00;;;;;;5075348;28;20102;-74
2022/01/13 12:12:46;;;;;;;40.23;18.87;;;7.30;88.50;;;;;;5057001;28;20040;-74
2022/01/13 12:15:20;;;;;;;38.58;18.00;;;7.30;88.30;;;;;;5064913;28;20075;-73
2022/01/13 12:18:00;;;;;;;41.22;19.20;;;7.30;88.20;;;;;;5067781;28;20071;-73
2022/01/13 12:20:39;;;;;;;46.58;20.77;;;7.30;87.70;;;;;;5048149;28;20040;-73
2022/01/13 12:23:16;;;;;;;44.65;20.13;;;7.30;88.00;;;;;;5045403;28;20055;-73
2022/01/13 12:25:43;;;;;;;39.75;19.42;;;7.40;88.00;;;;;;5022840;28;20040;-74
2022/01/13 12:28:15;;;;;;;43.47;19.05;;;7.40;88.10;;;;;;5039368;28;20047;-74
2022/01/13 12:30:41;;;;;;;40.38;19.67;;;7.40;88.10;;;;;;5057145;28;20069;-73
2022/01/13 12:33:08;;;;;;;38.63;18.77;;;7.50;87.60;;;;;;5062156;28;20141;-73
2022/01/13 12:35:34;;;;;;;44.92;20.75;;;7.50;87.90;;;;;;5046517;28;20040;-73
2022/01/13 12:38:15;;;;;;;39.33;20.93;;;7.40;87.50;;;;;;5071335;28;20449;-73
2022/01/13 12:41:03;;;;;;;41.17;19.67;;;7.50;87.80;;;;;;5061080;28;20067;-73
2022/01/13 12:46:24;;;;;;;43.03;19.75;;;7.50;87.30;;;;;;5070459;28;20048;-73
2022/01/13 12:48:52;;;;;;;37.90;18.67;;;7.50;87.80;;;;;;5038745;28;20059;-74
2022/01/13 12:51:20;;;;;;;43.10;18.42;;;7.60;87.90;;;;;;5037416;28;20553;-73
2022/01/13 12:53:48;;;;;;;35.08;18.38;;;7.60;87.50;;;;;;5051021;28;20480;-73
2022/01/13 12:56:20;;;;;;;37.67;19.23;;;7.60;87.30;;;;;;5045039;28;20040;-73
2022/01/13 12:58:52;;;;;;;41.78;18.40;;;7.60;87.40;;;;;;5069119;28;20404;-73
2022/01/13 13:01:27;;;;;;;42.42;18.98;;;7.70;87.60;;;;;;5061536;28;20710;-74
2022/01/13 13:04:01;;;;;;;;;;;7.60;87.10;;;;;;5049517;28;20116;-73
2022/01/13 13:06:28;;;;;;;34.50;17.23;;;7.60;87.20;;;;;;5063443;28;19983;-74
2022/01/13 13:09:03;;;;;;;36.83;17.92;;;7.60;87.60;;;;;;5065167;28;20131;-73
2022/01/13 13:11:33;;;;;;;37.80;16.17;;;7.70;87.60;;;;;;5067485;28;20112;-74